メインページ
METAR-TAF:

METAR-TAF

空港 :

ラバト, モロッコ

ラバト=サレ空港

緯度: 34-03N, 経度: 006-46W, 海抜: 84m

現時点の気象観測

当レポートは35分前の23:00(UTC)に作成
西/南西の風 6kt
気温 18°C
湿度 83%
気圧 1016 hPa
視程: 6000m
高度1600ftの雲は散在している
高度7000ftの雲は散在している

METAR: GMME 232300Z 24006KT 6000 SCT016 SCT070 18/15 Q1016 NOSIG

時間: 00:35 (23:35 UTC)

予報

当レポートは6時間35分前の17:00(UTC)に作成
予報は23日の 18時(UTC)から 24日の 24時(UTC)まで有効
南/南西の風 8kt
視程: 6000m
高度1300ftの雲は散在している
高度1600ftの雲は散在している
確率 40% :
24日の 00時(UTC)から 24日の 07時(UTC)まで一時的に
変向風 2kt
視程: 4000m
高度1000ftの千切れ雲あり
24日の 08時(UTC)から 24日の 12時(UTC)まで徐々に
西の風 6kt
視程: 8000m
高度2000ftの雲は散在している
24日の 12時(UTC)から 24日の 18時(UTC)まで一時的に
北西の風 10kt

TAF: GMME 231700Z 2318/2424 20008KT 6000 SCT013 SCT016 PROB40 TEMPO 2400/2407 VRB02KT 4000 BR BKN010 BECMG 2408/2412 26006KT 8000 SCT020 BKN70 TEMPO 2412/2418 32010KT

4,000以上の空港の気象観測と天気予報(METAR報とTAF報)

利用可能な観測所は地図上に黄色い丸と赤い丸で示す。

丸の上にカーソルを重ねると観測所名を参照できる。

次にクリックすると気象観測と天気予報を参照できる。

マップの切り替え:黒色「×」印の緑ボタンをクリックして拡大、「-」印の緑ボタンをクリックして縮小、緑色の三角印をクリックして隣りの地図に切り替え


METAR-TAF: